createdAt,value
2022-09-12T00:01:14.753Z,13.93
2022-09-12T00:04:16.379Z,14.83
2022-09-12T00:07:17.989Z,14.17
2022-09-12T00:10:19.943Z,18.07
2022-09-12T00:13:21.634Z,15.47
2022-09-12T00:16:25.598Z,18.63
2022-09-12T00:19:30.895Z,16.43
2022-09-12T00:22:32.519Z,20.67
2022-09-12T00:25:34.063Z,17.50
2022-09-12T00:28:38.069Z,16.57
2022-09-12T00:31:39.877Z,19.37
2022-09-12T00:34:41.488Z,15.43
2022-09-12T00:37:43.380Z,19.00
2022-09-12T00:40:45.332Z,21.17
2022-09-12T00:43:49.684Z,18.67
2022-09-12T00:47:00.189Z,15.53
2022-09-12T00:50:09.570Z,18.40
2022-09-12T00:53:12.290Z,17.90
2022-09-12T00:56:16.667Z,18.00
2022-09-12T00:59:22.486Z,17.70
2022-09-12T01:02:24.810Z,17.77
2022-09-12T01:05:29.260Z,18.60
2022-09-12T01:08:32.955Z,16.50
2022-09-12T01:11:36.988Z,20.30
2022-09-12T01:14:39.360Z,16.70
2022-09-12T01:18:15.755Z,14.20
2022-09-12T01:21:24.821Z,13.10
2022-09-12T01:24:38.697Z,16.37
2022-09-12T01:27:45.863Z,16.60
2022-09-12T01:31:14.790Z,19.23
2022-09-12T01:34:37.768Z,18.30
2022-09-12T01:37:56.180Z,14.90
2022-09-12T01:41:24.402Z,15.03
2022-09-12T01:44:49.525Z,17.40
2022-09-12T01:47:54.465Z,16.63
2022-09-12T01:51:06.435Z,15.17
2022-09-12T01:54:19.533Z,13.60
2022-09-12T01:57:29.838Z,14.07
2022-09-12T02:00:35.406Z,15.60
2022-09-12T02:03:46.659Z,14.47
2022-09-12T02:07:11.000Z,14.67
2022-09-12T02:10:18.355Z,12.97
2022-09-12T02:13:33.056Z,16.37
2022-09-12T02:16:40.580Z,12.80
2022-09-12T02:20:08.864Z,15.37
2022-09-12T02:23:15.614Z,23.37
2022-09-12T02:26:33.488Z,15.83
2022-09-12T02:29:35.486Z,16.40
2022-09-12T02:32:45.640Z,14.83
2022-09-12T02:35:52.325Z,13.33
2022-09-12T02:38:55.315Z,15.20
2022-09-12T02:42:00.110Z,13.27
2022-09-12T02:45:03.099Z,14.50
2022-09-12T02:48:25.686Z,18.53
2022-09-12T02:51:27.612Z,16.60
2022-09-12T02:54:30.349Z,18.13
2022-09-12T02:57:32.520Z,20.60
2022-09-12T03:00:46.202Z,19.10
2022-09-12T03:04:13.995Z,19.50
2022-09-12T03:07:28.826Z,17.20
2022-09-12T03:10:43.997Z,18.53
2022-09-12T03:14:37.884Z,18.10
2022-09-12T03:17:59.402Z,17.17
2022-09-12T03:21:15.611Z,19.83
2022-09-12T03:24:37.983Z,20.97
2022-09-12T03:27:48.525Z,17.13
2022-09-12T03:30:54.672Z,20.17
2022-09-12T03:33:56.241Z,14.57
2022-09-12T03:36:58.153Z,18.57
2022-09-12T03:40:01.023Z,14.90
2022-09-12T03:43:03.595Z,20.27
2022-09-12T03:46:05.315Z,15.60
2022-09-12T03:49:06.937Z,20.97
2022-09-12T03:52:08.479Z,18.13
2022-09-12T03:55:10.192Z,17.73
2022-09-12T03:58:11.734Z,18.20
2022-09-12T04:01:16.093Z,17.63
2022-09-12T04:04:17.685Z,17.77
2022-09-12T04:07:19.272Z,19.27
2022-09-12T04:10:20.932Z,17.60
2022-09-12T04:13:22.524Z,22.23
2022-09-12T04:16:24.124Z,15.03
2022-09-12T04:19:26.688Z,16.03
2022-09-12T04:22:29.739Z,18.77
2022-09-12T04:25:31.406Z,18.60
2022-09-12T04:28:34.474Z,16.80
2022-09-12T04:31:36.124Z,16.47
2022-09-12T04:34:37.780Z,14.70
2022-09-12T04:37:39.333Z,15.20
2022-09-12T04:40:41.002Z,17.20
2022-09-12T04:43:43.224Z,15.80
2022-09-12T04:46:46.923Z,13.90
2022-09-12T04:49:48.924Z,18.10
2022-09-12T04:52:54.560Z,17.90
2022-09-12T04:55:56.146Z,16.63
2022-09-12T04:59:00.510Z,19.77
2022-09-12T05:02:02.557Z,16.10
2022-09-12T05:05:04.569Z,20.27
2022-09-12T05:08:06.099Z,17.87
2022-09-12T05:11:14.225Z,22.67
2022-09-12T05:14:15.840Z,20.07
2022-09-12T05:17:17.657Z,19.63
2022-09-12T05:20:19.600Z,25.10
2022-09-12T05:23:22.139Z,18.60
2022-09-12T05:26:24.242Z,22.80
2022-09-12T05:29:25.967Z,22.80
2022-09-12T05:32:32.168Z,21.80
2022-09-12T05:35:33.704Z,23.40
2022-09-12T05:38:35.845Z,20.20
2022-09-12T05:41:37.458Z,24.10
2022-09-12T05:44:39.039Z,21.93
2022-09-12T05:47:40.720Z,19.83
2022-09-12T05:50:42.388Z,23.63
2022-09-12T05:53:43.921Z,21.20
2022-09-12T05:56:46.185Z,23.87
2022-09-12T05:59:48.779Z,25.40
2022-09-12T06:02:53.565Z,21.20
2022-09-12T06:05:55.272Z,18.00
2022-09-12T06:09:01.766Z,21.80
2022-09-12T06:12:03.819Z,18.30
2022-09-12T06:15:06.326Z,17.40
2022-09-12T06:18:07.935Z,13.87
2022-09-12T06:21:12.694Z,19.63
2022-09-12T06:24:14.332Z,16.43
2022-09-12T06:27:16.105Z,17.13
2022-09-12T06:30:20.326Z,21.03
2022-09-12T06:33:23.872Z,16.33
2022-09-12T06:36:31.507Z,16.60
2022-09-12T06:39:33.150Z,24.80
2022-09-12T06:42:34.701Z,23.80
2022-09-12T06:45:36.327Z,14.60
2022-09-12T06:48:41.912Z,18.73
2022-09-12T06:51:44.352Z,19.83
2022-09-12T06:54:46.592Z,15.43
2022-09-12T06:57:48.243Z,17.33
2022-09-12T07:00:50.103Z,15.63
2022-09-12T07:03:54.091Z,12.73
2022-09-12T07:06:55.885Z,13.87
2022-09-12T07:09:58.124Z,13.50
2022-09-12T07:12:59.655Z,16.03
2022-09-12T07:16:05.810Z,14.33
2022-09-12T07:19:08.260Z,13.03
2022-09-12T07:22:09.829Z,12.10
2022-09-12T07:25:11.380Z,15.20
2022-09-12T07:28:13.005Z,11.67
2022-09-12T07:31:17.580Z,13.33
2022-09-12T07:34:19.125Z,13.00
2022-09-12T07:37:20.697Z,16.07
2022-09-12T07:40:22.959Z,12.40
2022-09-12T07:43:25.060Z,13.97
2022-09-12T07:46:29.106Z,14.00
2022-09-12T07:49:30.682Z,11.43
2022-09-12T07:52:32.277Z,12.40
2022-09-12T07:55:33.851Z,11.03
2022-09-12T07:58:36.746Z,11.63
2022-09-12T08:01:39.735Z,12.40
2022-09-12T08:04:44.464Z,17.00
2022-09-12T08:07:46.277Z,16.53
2022-09-12T08:10:47.848Z,11.20
2022-09-12T08:13:55.273Z,13.23
2022-09-12T08:16:57.528Z,11.43
2022-09-12T08:19:59.062Z,15.30
2022-09-12T08:23:00.805Z,15.43
2022-09-12T08:26:06.363Z,13.10
2022-09-12T08:29:08.616Z,12.57
2022-09-12T08:32:10.533Z,12.90
2022-09-12T08:35:12.408Z,14.20
2022-09-12T08:38:13.956Z,15.07
2022-09-12T08:41:18.294Z,18.00
2022-09-12T08:45:05.147Z,17.63
2022-09-12T08:48:11.109Z,16.70
2022-09-12T08:51:14.935Z,15.67
2022-09-12T08:54:29.964Z,12.13
2022-09-12T08:57:31.736Z,11.87
2022-09-12T09:01:07.318Z,11.93
2022-09-12T09:04:28.950Z,13.63
2022-09-12T09:08:06.251Z,14.00
2022-09-12T09:11:55.616Z,12.90
2022-09-12T09:15:41.073Z,16.50
2022-09-12T09:18:45.183Z,14.43
2022-09-12T09:22:17.843Z,12.17
2022-09-12T09:25:50.655Z,12.93
2022-09-12T09:29:05.898Z,11.43
2022-09-12T09:32:31.409Z,11.47
2022-09-12T09:35:45.776Z,12.37
2022-09-12T09:38:47.849Z,11.17
2022-09-12T09:42:01.301Z,9.70
2022-09-12T09:45:13.864Z,10.13
2022-09-12T09:48:19.833Z,9.60
2022-09-12T09:51:30.227Z,9.40
2022-09-12T09:55:01.850Z,10.57
2022-09-12T09:58:04.039Z,12.57
2022-09-12T10:01:14.036Z,12.70
2022-09-12T10:04:31.200Z,9.27
2022-09-12T10:07:32.857Z,11.20
2022-09-12T10:10:34.551Z,10.53
2022-09-12T10:13:44.354Z,9.47
2022-09-12T10:16:54.050Z,9.07
2022-09-12T10:20:10.876Z,9.70
2022-09-12T10:23:18.711Z,11.20
2022-09-12T10:26:21.775Z,13.63
2022-09-12T10:29:32.454Z,11.77
2022-09-12T10:32:41.208Z,12.93
2022-09-12T10:35:48.990Z,10.70
2022-09-12T10:38:57.017Z,11.10
2022-09-12T10:41:59.882Z,10.07
2022-09-12T10:45:01.775Z,9.77
2022-09-12T10:48:25.476Z,9.23
2022-09-12T10:51:28.936Z,8.53
2022-09-12T10:54:30.484Z,10.40
2022-09-12T10:58:01.930Z,10.10
2022-09-12T11:01:17.700Z,9.33
2022-09-12T11:04:22.245Z,9.10
2022-09-12T11:07:39.800Z,9.13
2022-09-12T11:11:13.683Z,8.87
2022-09-12T11:14:37.300Z,8.00
2022-09-12T11:18:05.231Z,9.77
2022-09-12T11:21:45.015Z,9.83
2022-09-12T11:25:06.889Z,8.73
2022-09-12T11:28:23.516Z,9.60
2022-09-12T11:31:38.637Z,9.73
2022-09-12T11:35:07.354Z,9.73
2022-09-12T11:38:43.096Z,10.67
2022-09-12T11:41:51.140Z,11.73
2022-09-12T11:45:13.466Z,10.60
2022-09-12T11:48:35.136Z,9.43
2022-09-12T11:52:04.119Z,9.63
2022-09-12T11:55:08.476Z,8.40
2022-09-12T11:58:12.332Z,8.17
2022-09-12T12:01:27.782Z,8.03
2022-09-12T12:04:41.217Z,7.70
2022-09-12T12:07:55.412Z,7.47
2022-09-12T12:11:02.260Z,7.33
2022-09-12T12:14:35.080Z,7.27
2022-09-12T12:17:37.747Z,7.30
2022-09-12T12:20:39.731Z,7.07
2022-09-12T12:24:01.514Z,7.17
2022-09-12T12:27:05.251Z,6.47
2022-09-12T12:30:29.820Z,8.20
2022-09-12T12:33:31.701Z,7.80
2022-09-12T12:36:38.480Z,7.10
2022-09-12T12:39:39.997Z,7.00
2022-09-12T12:42:41.540Z,7.70
2022-09-12T12:46:03.084Z,6.47
2022-09-12T12:49:18.553Z,7.10
2022-09-12T12:52:20.511Z,6.10
2022-09-12T12:55:46.866Z,6.33
2022-09-12T12:58:48.467Z,6.40
2022-09-12T13:01:55.303Z,6.07
2022-09-12T13:05:01.004Z,6.03
2022-09-12T13:08:26.383Z,5.87
2022-09-12T13:11:35.176Z,7.03
2022-09-12T13:14:42.580Z,6.27
2022-09-12T13:17:46.765Z,6.50
2022-09-12T13:21:07.683Z,6.13
2022-09-12T13:24:17.015Z,10.40
2022-09-12T13:27:23.918Z,6.00
2022-09-12T13:30:26.502Z,6.43
2022-09-12T13:33:41.042Z,6.10
2022-09-12T13:36:57.651Z,6.70
2022-09-12T13:40:18.239Z,6.07
2022-09-12T13:43:37.163Z,8.50
2022-09-12T13:46:39.291Z,7.07
2022-09-12T13:49:42.407Z,6.07
2022-09-12T13:52:50.197Z,5.80
2022-09-12T13:55:57.936Z,5.90
2022-09-12T13:59:02.379Z,5.73
2022-09-12T14:02:21.045Z,5.53
2022-09-12T14:05:26.048Z,5.77
2022-09-12T14:08:27.615Z,5.90
2022-09-12T14:11:33.698Z,5.37
2022-09-12T14:14:37.716Z,5.30
2022-09-12T14:17:39.957Z,4.70
2022-09-12T14:20:42.732Z,5.77
2022-09-12T14:23:47.960Z,5.70
2022-09-12T14:26:52.813Z,6.13
2022-09-12T14:30:07.405Z,5.60
2022-09-12T14:33:11.969Z,5.93
2022-09-12T14:36:34.125Z,5.10
2022-09-12T14:39:42.636Z,6.50
2022-09-12T14:42:46.611Z,5.80
2022-09-12T14:46:07.169Z,4.33
2022-09-12T14:49:23.912Z,5.23
2022-09-12T14:52:34.663Z,5.57
2022-09-12T14:55:45.253Z,5.30
2022-09-12T14:58:46.974Z,4.70
2022-09-12T15:01:48.614Z,4.70
2022-09-12T15:05:08.578Z,4.13
2022-09-12T15:08:15.769Z,4.77
2022-09-12T15:11:17.308Z,4.93
2022-09-12T15:14:18.845Z,5.00
2022-09-12T15:17:20.431Z,4.63
2022-09-12T15:20:22.811Z,4.10
2022-09-12T15:23:47.223Z,5.47
2022-09-12T15:26:48.953Z,5.10
2022-09-12T15:29:50.608Z,5.47
2022-09-12T15:32:54.140Z,4.10
2022-09-12T15:35:56.335Z,4.27
2022-09-12T15:38:58.518Z,5.00
2022-09-12T15:42:00.098Z,4.83
2022-09-12T15:45:02.806Z,11.43
2022-09-12T15:48:04.580Z,4.50
2022-09-12T15:51:17.484Z,4.43
2022-09-12T15:54:20.360Z,4.30
2022-09-12T15:57:21.932Z,4.60
2022-09-12T16:00:24.124Z,4.53
2022-09-12T16:03:27.624Z,5.20
2022-09-12T16:06:36.296Z,4.17
2022-09-12T16:09:38.806Z,4.53
2022-09-12T16:12:40.449Z,5.53
2022-09-12T16:15:42.016Z,4.17
2022-09-12T16:18:43.796Z,7.10
2022-09-12T16:21:45.897Z,3.60
2022-09-12T16:24:47.451Z,4.30
2022-09-12T16:27:49.173Z,3.70
2022-09-12T16:30:58.541Z,4.93
2022-09-12T16:34:00.141Z,4.27
2022-09-12T16:37:02.313Z,3.80
2022-09-12T16:40:05.746Z,4.40
2022-09-12T16:43:07.305Z,12.10
2022-09-12T16:46:20.521Z,4.45
2022-09-12T16:49:22.184Z,4.35
2022-09-12T16:52:23.848Z,3.83
2022-09-12T16:55:25.421Z,5.60
2022-09-12T16:58:27.577Z,4.15
2022-09-12T17:01:29.198Z,4.20
2022-09-12T17:04:30.917Z,4.35
2022-09-12T17:07:33.051Z,4.70
2022-09-12T17:10:35.045Z,4.50
2022-09-12T17:14:02.704Z,4.40
2022-09-12T17:16:59.042Z,5.00
2022-09-12T17:20:00.644Z,4.33
2022-09-12T17:23:04.504Z,5.50
2022-09-12T17:26:10.210Z,5.43
2022-09-12T17:29:13.764Z,4.90
2022-09-12T17:32:17.550Z,4.57
2022-09-12T17:35:19.265Z,4.60
2022-09-12T17:38:25.007Z,6.77
2022-09-12T17:41:29.138Z,10.70
2022-09-12T17:44:30.882Z,6.63
2022-09-12T17:47:32.891Z,5.30
2022-09-12T17:50:39.524Z,6.97
2022-09-12T17:53:42.883Z,6.53
2022-09-12T17:56:46.546Z,7.53
2022-09-12T17:59:48.148Z,8.93
2022-09-12T18:02:50.618Z,13.50
2022-09-12T18:05:54.745Z,16.03
2022-09-12T18:08:59.981Z,7.23
2022-09-12T18:12:01.771Z,6.27
2022-09-12T18:15:03.447Z,6.80
2022-09-12T18:18:05.579Z,10.33
2022-09-12T18:21:08.607Z,8.47
2022-09-12T18:24:11.284Z,11.30
2022-09-12T18:27:12.864Z,6.43
2022-09-12T18:30:22.793Z,6.70
2022-09-12T18:33:25.153Z,5.57
2022-09-12T18:36:27.802Z,4.33
2022-09-12T18:39:29.416Z,5.60
2022-09-12T18:42:31.027Z,6.37
2022-09-12T18:45:33.470Z,5.97
2022-09-12T18:48:35.878Z,5.03
2022-09-12T18:51:39.947Z,18.23
2022-09-12T18:54:41.605Z,13.90
2022-09-12T18:57:43.282Z,15.43
2022-09-12T19:00:48.100Z,9.30
2022-09-12T19:03:50.381Z,6.17
2022-09-12T19:06:52.809Z,6.43
2022-09-12T19:09:54.453Z,5.33
2022-09-12T19:12:56.216Z,7.10
2022-09-12T19:15:59.756Z,9.60
2022-09-12T19:19:02.577Z,10.87
2022-09-12T19:22:04.595Z,11.03
2022-09-12T19:25:06.734Z,10.67
2022-09-12T19:28:08.681Z,8.50
2022-09-12T19:31:12.733Z,7.90
2022-09-12T19:34:15.278Z,9.50
2022-09-12T19:37:16.891Z,11.20
2022-09-12T19:40:18.590Z,8.73
2022-09-12T19:43:20.182Z,7.70
2022-09-12T19:46:23.727Z,12.63
2022-09-12T19:49:25.412Z,16.43
2022-09-12T19:52:27.009Z,8.37
2022-09-12T19:55:28.567Z,8.50
2022-09-12T19:58:31.422Z,6.70
2022-09-12T20:01:33.093Z,13.67
2022-09-12T20:04:34.781Z,11.30
2022-09-12T20:07:36.345Z,12.93
2022-09-12T20:10:37.892Z,6.83
2022-09-12T20:13:40.333Z,6.00
2022-09-12T20:16:42.134Z,8.67
2022-09-12T20:19:43.771Z,7.70
2022-09-12T20:22:50.348Z,7.83
2022-09-12T20:25:51.889Z,9.20
2022-09-12T20:28:53.638Z,8.00
2022-09-12T20:31:55.191Z,8.23
2022-09-12T20:34:56.763Z,9.30
2022-09-12T20:37:58.315Z,10.90
2022-09-12T20:41:05.904Z,8.80
2022-09-12T20:44:07.465Z,8.37
2022-09-12T20:47:09.207Z,8.60
2022-09-12T20:50:10.772Z,9.73
2022-09-12T20:53:12.547Z,11.30
2022-09-12T20:56:14.915Z,10.83
2022-09-12T20:59:16.545Z,9.43
2022-09-12T21:02:18.228Z,11.30
2022-09-12T21:05:20.217Z,10.67
2022-09-12T21:08:21.914Z,6.63
2022-09-12T21:11:23.524Z,10.20
2022-09-12T21:14:25.168Z,6.50
2022-09-12T21:17:59.925Z,8.00
2022-09-12T21:21:01.701Z,7.67
2022-09-12T21:24:03.740Z,7.30
2022-09-12T21:27:05.383Z,7.27
2022-09-12T21:30:07.464Z,9.33
2022-09-12T21:33:09.693Z,10.63
2022-09-12T21:36:12.535Z,7.77
2022-09-12T21:39:15.027Z,13.97
2022-09-12T21:42:16.756Z,7.90
2022-09-12T21:45:18.858Z,9.43
2022-09-12T21:48:20.419Z,10.90
2022-09-12T21:51:22.040Z,10.10
2022-09-12T21:54:23.673Z,9.60
2022-09-12T21:57:25.343Z,8.90
2022-09-12T22:00:26.995Z,9.73
2022-09-12T22:03:29.506Z,8.97
2022-09-12T22:06:31.442Z,8.73
2022-09-12T22:09:34.221Z,10.60
2022-09-12T22:12:35.851Z,10.30
2022-09-12T22:15:40.430Z,14.23
2022-09-12T22:18:47.001Z,10.40
2022-09-12T22:22:07.210Z,12.43
2022-09-12T22:25:11.220Z,10.37
2022-09-12T22:28:13.682Z,10.63
2022-09-12T22:31:16.337Z,14.07
2022-09-12T22:34:17.984Z,11.37
2022-09-12T22:37:19.563Z,9.50
2022-09-12T22:40:21.416Z,9.23
2022-09-12T22:43:23.254Z,12.90
2022-09-12T22:46:25.393Z,12.90
2022-09-12T22:49:27.047Z,12.37
2022-09-12T22:52:28.626Z,9.90
2022-09-12T22:55:30.461Z,9.20
2022-09-12T22:58:33.682Z,8.30
2022-09-12T23:01:35.538Z,9.67
2022-09-12T23:04:37.561Z,10.00
2022-09-12T23:07:39.214Z,10.93
2022-09-12T23:10:41.019Z,11.10
2022-09-12T23:13:44.774Z,9.60
2022-09-12T23:16:46.474Z,8.40
2022-09-12T23:19:48.451Z,7.67
2022-09-12T23:22:50.360Z,9.17
2022-09-12T23:26:09.403Z,9.57
2022-09-12T23:29:11.402Z,9.93
2022-09-12T23:32:12.955Z,10.40
2022-09-12T23:35:15.319Z,9.67
2022-09-12T23:38:16.928Z,9.20
2022-09-12T23:41:19.264Z,11.10
2022-09-12T23:44:20.860Z,10.33
2022-09-12T23:47:22.397Z,10.87
2022-09-12T23:50:23.928Z,11.57
2022-09-12T23:53:25.715Z,11.60
2022-09-12T23:56:27.403Z,11.73
2022-09-12T23:59:30.958Z,9.43
